Flight Track Log - Related Links

Times and Time Zones

All times are in EDT time to prevent confusion due to time zone crossing. See the USC105 flight status page for this flight to view local times or setup timezone preferences in your user account.

Time Position Orientation Groundspeed Altitude Reporting Facility
EDT Latitude Longitude Course Direction KTS MPH feet Rate Location/Type
Wed 05:35:50 AM 41.8667 -88.2333 153° Southeast 129 148 2,200  Level Chicago TRACON
Wed 05:37:06 AM 41.8258 -88.2172 164° South 123 142 3,800 1,235 Climbing Chicago Center
Wed 05:38:06 AM 41.7992 -88.1903 143° Southeast 120 138 5,000 1,091 Climbing Chicago Center
Wed 05:39:07 AM 41.7736 -88.1564 135° Southeast 124 143 6,000 496 Climbing Chicago Center
Wed 05:40:07 AM 41.7453 -88.1086 128° Southeast 163 188 6,000  Level Chicago Center
Wed 05:41:00 AM 41.9431 -87.8461 153° Southeast  Level Estimated
Wed 05:41:08 AM 41.7164 -88.0575 127° Southeast 171 197 6,000  Level Chicago Center
Wed 05:42:08 AM 41.6933 -87.9981 117° Southeast 180 207 6,000 496 Level Chicago Center
Wed 05:43:09 AM 41.6911 -87.9367 93° East 163 188 7,000 492 Climbing Chicago Center
Wed 05:44:10 AM 41.6906 -87.8739 91° East 165 190 7,000  Level Chicago Center
Wed 05:45:10 AM 41.7008 -87.8058 79° East 180 207 7,000  Level Chicago Center
Wed 05:46:11 AM 41.7106 -87.7367 79° East 187 215 7,000  Level Chicago Center
Wed 05:47:11 AM 41.7203 -87.6669 79° East 190 219 7,000  Level Chicago Center
Wed 05:48:12 AM 41.7292 -87.5978 80° East 191 220 7,000  Level Chicago Center
Wed 05:49:12 AM 41.7394 -87.5300 78° East 188 216 7,000  Level Chicago Center
Wed 05:50:13 AM 41.7494 -87.4597 79° East 192 221 7,000  Level Chicago Center
Wed 05:51:13 AM 41.7611 -87.3750 80° East 194 223 7,000  Level Chicago Center
Wed 05:52:14 AM 41.7722 -87.3047 78° East 194 223 7,000  Level Chicago Center
Wed 05:53:15 AM 41.7822 -87.2328 79° East 196 226 7,000  Level Chicago Center
Wed 05:54:15 AM 41.7925 -87.1606 79° East 198 228 7,000  Level Chicago Center
Wed 05:55:16 AM 41.8025 -87.0886 79° East 197 227 7,000  Level Chicago Center
Wed 05:56:16 AM 41.8128 -87.0172 79° East 197 227 7,000  Level Chicago Center
Wed 05:57:17 AM 41.8222 -86.9464 80° East 195 224 7,000  Level Chicago Center
Wed 05:58:17 AM 41.8325 -86.8758 79° East 194 223 7,000  Level Chicago Center
Wed 05:59:18 AM 41.8414 -86.8053 80° East 193 222 7,000  Level Chicago Center
Wed 06:00:18 AM 41.8522 -86.7342 78° East 195 224 7,000  Level Chicago Center
Wed 06:01:19 AM 41.8611 -86.6628 80° East 194 223 7,000  Level Chicago Center
Wed 06:02:20 AM 41.8708 -86.5903 80° East 197 227 7,000  Level Chicago Center
Wed 06:03:20 AM 41.8806 -86.5169 80° East 201 231 7,000  Level Chicago Center
Wed 06:04:21 AM 41.8900 -86.4431 80° East 202 232 7,000  Level Chicago Center
Wed 06:05:21 AM 41.9000 -86.3689 80° East 202 232 7,000  Level Chicago Center
Wed 06:06:22 AM 41.9097 -86.2944 80° East 202 232 7,000  Level Chicago Center
Wed 06:07:22 AM 41.9192 -86.2189 80° East 204 235 7,000  Level Chicago Center
Wed 06:08:23 AM 41.9286 -86.1453 80° East 202 232 7,000  Level Chicago Center
Wed 06:09:24 AM 41.9386 -86.0706 80° East 203 234 7,000  Level Chicago Center
Wed 06:10:24 AM 41.9483 -85.9953 80° East 203 234 7,000  Level Chicago Center
Wed 06:11:25 AM 41.9586 -85.9203 80° East 204 235 7,000  Level Chicago Center
Wed 06:12:25 AM 41.9675 -85.8469 81° East 201 231 7,000  Level Chicago Center
Wed 06:13:26 AM 41.9769 -85.7711 80° East 205 236 7,000  Level Chicago Center
Wed 06:14:27 AM 41.9872 -85.6961 80° East 204 235 7,000  Level Chicago Center
Wed 06:15:27 AM 41.9983 -85.6053 81° East 204 235 7,000  Level Chicago Center
Wed 06:16:28 AM 42.0081 -85.5306 80° East 203 234 7,000  Level Chicago Center
Wed 06:17:28 AM 42.0178 -85.4558 80° East 203 234 7,000  Level Chicago Center
Wed 06:18:29 AM 42.0261 -85.3819 81° East 201 231 7,000  Level Chicago Center
Wed 06:19:29 AM 42.0356 -85.3078 80° East 201 231 7,000  Level Chicago Center
Wed 06:20:30 AM 42.0453 -85.2342 80° East 200 230 7,000  Level Chicago Center
Wed 06:21:31 AM 42.0542 -85.1600 81° East 200 230 7,000  Level Chicago Center
Wed 06:22:31 AM 42.0628 -85.0875 81° East 198 228 7,000  Level Chicago Center
Wed 06:23:32 AM 42.0714 -85.0136 81° East 198 228 7,000  Level Chicago Center
Wed 06:24:32 AM 42.0803 -84.9397 81° East 199 229 7,000  Level Chicago Center
Wed 06:25:33 AM 42.0894 -84.8667 80° East 199 229 7,000  Level Chicago Center
Wed 06:26:34 AM 42.0981 -84.7911 81° East 201 231 7,000  Level Chicago Center
Wed 06:27:34 AM 42.1067 -84.7169 81° East 201 231 7,000  Level Chicago Center
Wed 06:28:35 AM 42.1153 -84.6436 81° East 199 229 7,000  Level Chicago Center
Wed 06:29:36 AM 42.1239 -84.5706 81° East 199 229 7,000  Level Chicago Center
Wed 06:30:36 AM 42.1322 -84.4931 82° East 200 230 7,000  Level Chicago Center
Wed 06:31:37 AM 42.1408 -84.4186 81° East 200 230 7,000  Level Chicago Center
Wed 06:32:37 AM 42.1503 -84.3450 80° East 201 231 7,000  Level Chicago Center
Wed 06:33:38 AM 42.1583 -84.2711 82° East 199 229 7,000  Level Chicago Center
Wed 06:34:39 AM 42.1658 -84.1989 82° East 197 227 7,000  Level Chicago Center
Wed 06:35:39 AM 42.1750 -84.1258 80° East 198 228 7,000  Level Chicago Center
Wed 06:36:40 AM 42.1819 -84.0569 82° East 194 223 7,000  Level Chicago Center
Wed 06:37:40 AM 42.1925 -83.9858 79° East 190 219 7,000  Level Chicago Center

Login

Don't have an account? Register now (free) for customized features, flight alerts, and more!